Time;durP1;ratioP1;P1;durP2;ratioP2;P2;SDS_P1;SDS_P2;PMS_P1;PMS_P2;Temp;Humidity;BMP_temperature;BMP_pressure;BME280_temperature;BME280_humidity;BME280_pressure;Samples;Min_cycle;Max_cycle;Signal;HPM_P1;HPM_P2
2023/02/03 00:01:43;;;;;;;3.40;3.10;;;9.90;99.90;;;;;;5033592;28;20171;-72
2023/02/03 00:04:08;;;;;;;4.10;3.63;;;9.80;99.90;;;;;;5043664;28;20205;-71
2023/02/03 00:06:34;;;;;;;7.90;5.20;;;9.80;99.90;;;;;;5052335;28;20413;-71
2023/02/03 00:09:00;;;;;;;6.50;3.20;;;9.80;99.90;;;;;;5053410;28;20575;-71
2023/02/03 00:11:29;;;;;;;7.30;3.70;;;9.90;99.90;;;;;;5054162;28;20573;-72
2023/02/03 00:13:54;;;;;;;7.23;3.63;;;9.90;99.90;;;;;;5053661;28;20518;-71
2023/02/03 00:16:20;;;;;;;5.33;3.60;;;9.80;99.90;;;;;;5053218;28;20874;-72
2023/02/03 00:18:45;;;;;;;5.67;4.37;;;9.70;99.90;;;;;;5040948;28;20680;-72
2023/02/03 00:21:13;;;;;;;10.00;4.60;;;9.70;99.90;;;;;;5033493;28;20541;-72
2023/02/03 00:23:39;;;;;;;4.83;3.10;;;9.80;99.90;;;;;;5033275;28;20640;-72
2023/02/03 00:26:13;;;;;;;4.13;3.73;;;9.70;99.90;;;;;;5032852;28;20439;-72
2023/02/03 00:28:39;;;;;;;5.63;3.70;;;9.80;99.90;;;;;;5033418;28;20908;-72
2023/02/03 00:31:05;;;;;;;3.73;3.27;;;9.70;99.90;;;;;;5033237;28;20402;-72
2023/02/03 00:33:32;;;;;;;5.10;3.87;;;9.60;99.90;;;;;;5032831;28;20175;-72
2023/02/03 00:36:02;;;;;;;10.40;3.20;;;9.70;99.90;;;;;;5031415;28;20468;-72
2023/02/03 00:38:28;;;;;;;6.80;3.80;;;9.70;99.90;;;;;;5033269;28;20469;-73
2023/02/03 00:40:54;;;;;;;4.63;3.00;;;9.60;99.90;;;;;;5033281;28;20757;-71
2023/02/03 00:43:20;;;;;;;10.30;3.47;;;9.70;99.90;;;;;;5033085;28;20345;-72
2023/02/03 00:45:45;;;;;;;4.83;2.80;;;9.60;99.90;;;;;;5032907;28;20250;-71
2023/02/03 00:48:11;;;;;;;4.90;3.67;;;9.60;99.90;;;;;;5047457;28;20451;-71
2023/02/03 00:50:37;;;;;;;4.80;3.20;;;9.60;99.90;;;;;;5060046;28;20695;-72
2023/02/03 00:53:02;;;;;;;9.00;2.93;;;9.60;99.90;;;;;;5052600;28;20209;-72
2023/02/03 00:55:28;;;;;;;5.83;3.80;;;9.70;99.90;;;;;;5052549;28;20244;-72
2023/02/03 00:57:53;;;;;;;8.80;3.10;;;9.70;99.90;;;;;;5052762;28;20173;-72
2023/02/03 01:00:19;;;;;;;7.53;3.10;;;9.60;99.90;;;;;;5052530;28;20191;-73
2023/02/03 01:02:45;;;;;;;6.00;2.70;;;9.70;99.90;;;;;;5052689;28;20594;-72
2023/02/03 01:05:11;;;;;;;4.40;2.57;;;9.70;99.90;;;;;;5052163;28;20452;-72
2023/02/03 01:07:36;;;;;;;6.23;3.87;;;9.60;99.90;;;;;;5052505;28;20178;-73
2023/02/03 01:10:04;;;;;;;4.30;3.03;;;9.70;99.90;;;;;;5052386;28;20627;-72
2023/02/03 01:12:31;;;;;;;4.57;2.90;;;9.70;99.90;;;;;;5052624;28;20171;-72
2023/02/03 01:14:57;;;;;;;6.77;4.10;;;9.70;99.90;;;;;;5050432;28;20532;-73
2023/02/03 01:17:22;;;;;;;3.67;2.43;;;9.70;99.90;;;;;;5043821;28;20420;-72
2023/02/03 01:19:50;;;;;;;17.83;3.40;;;9.70;99.90;;;;;;5032518;28;20795;-73
2023/02/03 01:22:15;;;;;;;6.20;2.83;;;9.70;99.90;;;;;;5032309;28;20193;-72
2023/02/03 01:24:41;;;;;;;3.80;2.70;;;9.60;99.90;;;;;;5032233;28;20406;-72
2023/02/03 01:27:06;;;;;;;7.00;3.27;;;9.80;99.90;;;;;;5032308;28;20167;-73
2023/02/03 01:29:32;;;;;;;6.03;2.70;;;9.80;99.90;;;;;;5031111;28;20660;-72
2023/02/03 01:31:57;;;;;;;3.83;2.90;;;9.80;99.90;;;;;;5032294;28;20498;-72
2023/02/03 01:34:23;;;;;;;3.40;3.00;;;9.90;99.90;;;;;;5030934;28;20226;-72
2023/02/03 01:36:48;;;;;;;9.13;3.20;;;9.80;99.90;;;;;;5032185;28;20171;-72
2023/02/03 01:39:14;;;;;;;8.73;4.13;;;9.90;99.90;;;;;;5032094;28;20679;-72
2023/02/03 01:41:40;;;;;;;2.70;2.23;;;9.70;99.90;;;;;;5032217;28;20171;-72
2023/02/03 01:44:37;;;;;;;6.00;3.70;;;9.80;99.90;;;;;;5031984;28;20167;-73
2023/02/03 01:47:04;;;;;;;8.50;3.23;;;9.70;99.90;;;;;;5038652;28;20530;-73
2023/02/03 01:49:35;;;;;;;9.00;2.50;;;9.80;99.90;;;;;;5052013;28;20766;-73
2023/02/03 01:52:02;;;;;;;4.53;2.67;;;9.80;99.90;;;;;;5051864;28;20409;-73
2023/02/03 01:54:31;;;;;;;6.33;2.70;;;9.80;99.90;;;;;;5058922;28;20448;-72
2023/02/03 01:57:09;;;;;;;5.23;2.53;;;9.90;99.90;;;;;;5056358;28;20460;-73
2023/02/03 01:59:35;;;;;;;7.90;2.30;;;9.90;99.90;;;;;;5051778;28;20463;-72
2023/02/03 02:02:02;;;;;;;5.07;2.40;;;9.90;99.90;;;;;;5051995;28;20442;-73
2023/02/03 02:04:38;;;;;;;5.80;2.53;;;9.90;99.90;;;;;;5050248;28;20420;-73
2023/02/03 02:07:05;;;;;;;2.97;2.63;;;9.90;99.90;;;;;;5051973;28;20890;-73
2023/02/03 02:09:31;;;;;;;2.43;2.13;;;9.90;99.90;;;;;;5051675;28;20555;-73
2023/02/03 02:11:56;;;;;;;4.03;2.27;;;10.00;99.90;;;;;;5051675;28;20495;-72
2023/02/03 02:14:22;;;;;;;5.47;1.97;;;10.00;99.90;;;;;;5051406;28;20933;-73
2023/02/03 02:17:31;;;;;;;4.07;2.30;;;9.90;99.90;;;;;;5045430;28;20199;-72
2023/02/03 02:20:25;;;;;;;16.67;3.20;;;9.90;99.90;;;;;;5031768;28;20198;-72
2023/02/03 02:23:18;;;;;;;4.37;3.47;;;9.90;99.90;;;;;;5031580;28;20406;-74
2023/02/03 02:25:59;;;;;;;8.20;3.20;;;10.00;99.90;;;;;;5031939;28;20406;-72
2023/02/03 02:28:31;;;;;;;7.30;3.07;;;9.90;99.90;;;;;;5035584;28;20402;-74
2023/02/03 02:31:15;;;;;;;6.27;2.73;;;9.90;99.90;;;;;;5035660;28;20455;-73
2023/02/03 02:33:48;;;;;;;3.00;2.30;;;9.80;99.90;;;;;;5034948;28;20417;-73
2023/02/03 02:36:31;;;;;;;4.07;2.13;;;9.80;99.90;;;;;;5033932;28;20421;-73
2023/02/03 02:39:11;;;;;;;10.30;3.10;;;9.70;99.90;;;;;;5035652;28;20461;-74
2023/02/03 02:41:40;;;;;;;6.63;3.23;;;9.70;99.90;;;;;;5034200;28;20915;-74
2023/02/03 02:44:15;;;;;;;9.90;2.90;;;9.70;99.90;;;;;;5035290;28;20413;-73
2023/02/03 02:46:47;;;;;;;5.40;2.60;;;9.70;99.90;;;;;;5043341;28;20440;-73
2023/02/03 02:49:34;;;;;;;4.17;2.37;;;9.60;99.90;;;;;;5035181;28;20821;-74
2023/02/03 02:52:03;;;;;;;5.00;2.47;;;9.70;99.90;;;;;;5035368;28;20420;-74
2023/02/03 02:54:31;;;;;;;2.63;2.03;;;9.70;99.90;;;;;;5041285;28;20849;-71
2023/02/03 02:57:00;;;;;;;2.87;2.60;;;9.70;99.90;;;;;;5035219;28;20460;-73
2023/02/03 02:59:26;;;;;;;7.20;2.60;;;9.80;99.90;;;;;;5035104;28;20410;-73
2023/02/03 03:01:51;;;;;;;4.07;2.17;;;9.80;99.90;;;;;;5035085;28;20446;-72
2023/02/03 03:04:22;;;;;;;5.80;2.67;;;9.80;99.90;;;;;;5033569;28;20536;-72
2023/02/03 03:06:52;;;;;;;3.77;2.83;;;9.80;99.90;;;;;;5060454;28;20882;-72
2023/02/03 03:09:23;;;;;;;9.27;3.20;;;9.70;99.90;;;;;;5074739;28;20514;-72
2023/02/03 03:11:53;;;;;;;3.17;2.70;;;9.80;99.90;;;;;;5074839;28;20404;-73
2023/02/03 03:14:22;;;;;;;2.93;2.07;;;9.80;99.90;;;;;;5074636;28;20452;-73
2023/02/03 03:16:56;;;;;;;2.90;2.00;;;9.80;99.90;;;;;;5053669;28;20836;-73
2023/02/03 03:19:25;;;;;;;3.83;2.13;;;9.80;99.90;;;;;;5054586;28;20804;-74
2023/02/03 03:21:56;;;;;;;6.57;2.60;;;9.90;99.90;;;;;;5054453;28;20385;-72
2023/02/03 03:24:27;;;;;;;5.30;2.37;;;9.90;99.90;;;;;;5054416;28;20456;-73
2023/02/03 03:27:11;;;;;;;2.33;2.10;;;9.90;99.90;;;;;;5054622;28;20796;-73
2023/02/03 03:29:52;;;;;;;3.03;2.17;;;10.00;99.90;;;;;;5054566;28;20429;-73
2023/02/03 03:32:18;;;;;;;2.40;2.20;;;9.90;99.90;;;;;;5054479;28;20413;-73
2023/02/03 03:34:44;;;;;;;3.90;2.90;;;9.90;99.90;;;;;;5053953;28;20491;-73
2023/02/03 03:37:13;;;;;;;5.97;2.23;;;10.00;99.90;;;;;;5054035;28;20159;-71
2023/02/03 03:39:50;;;;;;;10.37;4.20;;;10.00;99.90;;;;;;5054052;28;20187;-73
2023/02/03 03:42:45;;;;;;;6.93;2.33;;;10.00;99.90;;;;;;5054368;28;20390;-73
2023/02/03 03:45:35;;;;;;;3.70;2.37;;;9.90;99.90;;;;;;5048793;28;20448;-73
2023/02/03 03:48:18;;;;;;;2.40;1.87;;;9.90;99.90;;;;;;5034318;28;20804;-72
2023/02/03 03:50:52;;;;;;;4.60;2.73;;;10.00;99.90;;;;;;5034068;28;20425;-73
2023/02/03 03:53:19;;;;;;;7.07;3.97;;;10.00;99.90;;;;;;5034175;28;20408;-72
2023/02/03 03:55:49;;;;;;;2.63;2.43;;;10.00;99.90;;;;;;5033700;28;20508;-71
2023/02/03 03:58:23;;;;;;;3.03;1.77;;;9.90;99.90;;;;;;5034151;28;20402;-73
2023/02/03 04:00:49;;;;;;;10.47;2.30;;;9.90;99.90;;;;;;5033948;28;20454;-73
2023/02/03 04:03:20;;;;;;;4.57;2.77;;;9.90;99.90;;;;;;5033990;28;20414;-73
2023/02/03 04:05:45;;;;;;;4.33;2.47;;;9.90;99.90;;;;;;5032285;28;20448;-73
2023/02/03 04:08:11;;;;;;;3.20;2.00;;;9.90;99.90;;;;;;5033868;28;20441;-72
2023/02/03 04:10:39;;;;;;;3.80;2.37;;;9.80;99.90;;;;;;5042449;28;20217;-71
2023/02/03 04:13:07;;;;;;;4.07;2.57;;;9.80;99.90;;;;;;5062349;28;20576;-72
2023/02/03 04:15:32;;;;;;;3.10;2.50;;;9.80;99.90;;;;;;5063217;28;20939;-73
2023/02/03 04:18:00;;;;;;;6.33;2.63;;;9.80;99.90;;;;;;5033586;28;20413;-73
2023/02/03 04:20:27;;;;;;;6.17;4.00;;;9.70;99.90;;;;;;5033541;28;20422;-72
2023/02/03 04:22:52;;;;;;;6.40;3.50;;;9.80;99.90;;;;;;5032200;28;20415;-72
2023/02/03 04:25:18;;;;;;;4.93;2.20;;;9.80;99.90;;;;;;5033319;28;20413;-71
2023/02/03 04:27:44;;;;;;;5.90;4.10;;;9.90;99.90;;;;;;5033467;28;20472;-71
2023/02/03 04:30:10;;;;;;;4.87;2.03;;;9.80;99.90;;;;;;5033417;28;20454;-71
2023/02/03 04:32:36;;;;;;;2.93;2.63;;;9.90;99.90;;;;;;5033333;28;20172;-73
2023/02/03 04:35:03;;;;;;;6.83;2.30;;;9.90;99.90;;;;;;5031663;28;20804;-73
2023/02/03 04:37:29;;;;;;;11.83;2.47;;;9.90;99.90;;;;;;5033308;28;20175;-72
2023/02/03 04:39:55;;;;;;;7.13;2.10;;;9.80;99.90;;;;;;5033116;28;20430;-71
2023/02/03 04:42:21;;;;;;;3.23;2.30;;;9.80;99.90;;;;;;5033283;28;20163;-72
2023/02/03 04:44:47;;;;;;;4.10;2.40;;;9.80;99.90;;;;;;5032845;28;20409;-73
2023/02/03 04:47:13;;;;;;;6.00;4.00;;;9.80;99.90;;;;;;5052542;28;20413;-74
2023/02/03 04:49:39;;;;;;;4.17;2.40;;;9.80;99.90;;;;;;5050684;28;20206;-74
2023/02/03 04:52:05;;;;;;;4.83;1.90;;;9.80;99.90;;;;;;5052887;28;20420;-73
2023/02/03 04:54:30;;;;;;;2.77;2.13;;;9.80;99.90;;;;;;5049381;28;20212;-72
2023/02/03 04:56:56;;;;;;;7.63;2.20;;;9.80;99.90;;;;;;5032939;28;20408;-73
2023/02/03 04:59:21;;;;;;;3.53;2.80;;;9.90;99.90;;;;;;5032960;28;20214;-73
2023/02/03 05:01:47;;;;;;;2.20;1.47;;;9.90;99.90;;;;;;5032785;28;20175;-71
2023/02/03 05:04:12;;;;;;;10.13;2.53;;;9.90;99.90;;;;;;5032758;28;20252;-73
2023/02/03 05:06:38;;;;;;;11.50;2.40;;;9.80;99.90;;;;;;5032514;28;20206;-73
2023/02/03 05:09:04;;;;;;;2.50;1.90;;;9.90;99.90;;;;;;5032627;28;20210;-72
2023/02/03 05:11:29;;;;;;;3.60;2.20;;;9.90;99.90;;;;;;5032761;28;20222;-73
2023/02/03 05:13:55;;;;;;;6.37;2.27;;;9.90;99.90;;;;;;5032363;28;20209;-73
2023/02/03 05:16:21;;;;;;;2.93;2.13;;;9.90;99.90;;;;;;5039273;28;20198;-73
2023/02/03 05:18:46;;;;;;;2.33;2.10;;;9.80;99.90;;;;;;5045244;28;20661;-73
2023/02/03 05:21:13;;;;;;;5.63;2.70;;;9.80;99.90;;;;;;5059494;28;20206;-72
2023/02/03 05:23:38;;;;;;;16.00;3.70;;;9.80;99.90;;;;;;5057261;28;20263;-72
2023/02/03 05:26:04;;;;;;;3.30;2.53;;;9.80;99.90;;;;;;5052107;28;20842;-73
2023/02/03 05:28:30;;;;;;;2.37;1.63;;;9.90;99.90;;;;;;5052213;28;20174;-74
2023/02/03 05:30:59;;;;;;;4.70;2.00;;;9.80;99.90;;;;;;5052269;28;20193;-74
2023/02/03 05:33:25;;;;;;;3.40;2.53;;;9.90;99.90;;;;;;5052298;28;20617;-72
2023/02/03 05:35:50;;;;;;;5.50;2.30;;;9.80;99.90;;;;;;5051661;28;20456;-73
2023/02/03 05:38:16;;;;;;;2.80;2.30;;;9.80;99.90;;;;;;5051006;28;20816;-72
2023/02/03 05:43:27;;;;;;;3.33;1.80;;;9.80;99.90;;;;;;5052524;28;20570;-72
2023/02/03 05:45:52;;;;;;;3.00;2.80;;;9.80;99.90;;;;;;5039670;28;20756;-72
2023/02/03 05:48:18;;;;;;;4.30;2.70;;;9.80;99.90;;;;;;5032159;28;20406;-71
2023/02/03 05:50:43;;;;;;;1.90;1.20;;;9.80;99.90;;;;;;5031971;28;20191;-71
2023/02/03 05:53:09;;;;;;;1.77;1.63;;;9.80;99.90;;;;;;5032125;28;20541;-72
2023/02/03 05:55:36;;;;;;;4.93;1.90;;;9.80;99.90;;;;;;5030437;28;20210;-71
2023/02/03 05:58:03;;;;;;;1.90;1.70;;;9.80;99.90;;;;;;5031985;28;20247;-72
2023/02/03 06:00:28;;;;;;;2.90;1.40;;;9.70;99.90;;;;;;5034151;28;20440;-73
2023/02/03 06:02:56;;;;;;;6.00;1.73;;;9.80;99.90;;;;;;5031974;28;20884;-72
2023/02/03 06:05:23;;;;;;;6.13;2.60;;;9.80;99.90;;;;;;5030445;28;20175;-71
2023/02/03 06:07:49;;;;;;;7.77;3.70;;;9.80;99.90;;;;;;5031726;28;20417;-72
2023/02/03 06:10:15;;;;;;;4.10;1.40;;;9.80;99.90;;;;;;5031878;28;20457;-72
2023/02/03 06:12:41;;;;;;;2.70;1.90;;;9.80;99.90;;;;;;5031743;28;20906;-73
2023/02/03 06:15:07;;;;;;;3.03;1.90;;;9.80;99.90;;;;;;5031599;28;20926;-72
2023/02/03 06:17:34;;;;;;;5.53;1.50;;;9.80;99.90;;;;;;5037765;28;20474;-73
2023/02/03 06:20:04;;;;;;;1.53;1.30;;;9.70;99.90;;;;;;5051672;28;20491;-72
2023/02/03 06:22:29;;;;;;;1.77;1.30;;;9.80;99.90;;;;;;5051804;28;20444;-73
2023/02/03 06:24:55;;;;;;;4.47;1.63;;;9.80;99.90;;;;;;5051305;28;20436;-73
2023/02/03 06:27:20;;;;;;;6.07;1.77;;;9.80;99.90;;;;;;5051752;28;20245;-72
2023/02/03 06:29:46;;;;;;;2.10;1.57;;;9.80;99.90;;;;;;5053107;28;20575;-74
2023/02/03 06:32:11;;;;;;;8.83;1.73;;;9.80;99.90;;;;;;5062229;28;20182;-73
2023/02/03 06:34:37;;;;;;;8.73;1.43;;;9.90;99.90;;;;;;5051100;28;20198;-73
2023/02/03 06:37:02;;;;;;;6.70;1.50;;;9.90;99.90;;;;;;5051746;28;20258;-72
2023/02/03 06:39:28;;;;;;;1.83;1.40;;;9.80;99.90;;;;;;5051579;28;20558;-72
2023/02/03 06:41:54;;;;;;;1.93;1.20;;;9.80;99.90;;;;;;5051411;28;20255;-72
2023/02/03 06:44:20;;;;;;;3.63;1.33;;;9.80;99.90;;;;;;5045798;28;20176;-72
2023/02/03 06:46:45;;;;;;;2.53;1.27;;;9.80;99.90;;;;;;5049150;28;20975;-72
2023/02/03 06:49:11;;;;;;;2.27;1.47;;;9.80;99.90;;;;;;5051445;28;20187;-74
2023/02/03 06:51:36;;;;;;;3.53;1.90;;;9.80;99.90;;;;;;5050160;28;20632;-74
2023/02/03 06:54:02;;;;;;;4.40;2.30;;;9.80;99.90;;;;;;5051410;28;20706;-72
2023/02/03 06:56:28;;;;;;;6.47;1.80;;;9.80;99.90;;;;;;5050919;28;20223;-73
2023/02/03 06:58:54;;;;;;;7.70;1.50;;;9.80;99.90;;;;;;5051335;28;20429;-72
2023/02/03 07:01:20;;;;;;;10.20;1.63;;;9.80;99.90;;;;;;5049164;28;20405;-72
2023/02/03 07:03:46;;;;;;;5.37;2.60;;;9.70;99.90;;;;;;5051173;28;20819;-72
2023/02/03 07:06:12;;;;;;;5.73;1.60;;;9.80;99.90;;;;;;5051041;28;20640;-73
2023/02/03 07:08:37;;;;;;;3.97;2.03;;;9.80;99.90;;;;;;5051002;28;20171;-73
2023/02/03 07:11:03;;;;;;;3.70;1.80;;;9.90;99.90;;;;;;5051121;28;20890;-73
2023/02/03 07:13:29;;;;;;;3.00;1.67;;;9.90;99.90;;;;;;5054168;28;20564;-72
2023/02/03 07:15:54;;;;;;;4.10;2.20;;;9.90;99.90;;;;;;5054476;28;20201;-73
2023/02/03 07:18:23;;;;;;;4.50;1.90;;;10.00;99.90;;;;;;5054849;28;20249;-73
2023/02/03 07:20:50;;;;;;;7.67;1.90;;;9.90;99.90;;;;;;5054689;28;20265;-72
2023/02/03 07:23:15;;;;;;;4.20;2.40;;;10.00;99.90;;;;;;5054738;28;21112;-73
2023/02/03 07:25:41;;;;;;;3.47;1.40;;;9.90;99.90;;;;;;5054268;28;20492;-73
2023/02/03 07:28:06;;;;;;;11.77;1.57;;;9.90;99.90;;;;;;5054550;28;20182;-72
2023/02/03 07:30:32;;;;;;;5.23;1.60;;;9.90;99.90;;;;;;5054474;28;20187;-74
2023/02/03 07:32:57;;;;;;;5.60;2.40;;;9.90;99.90;;;;;;5052916;28;20186;-73
2023/02/03 07:35:23;;;;;;;4.33;1.43;;;10.00;99.90;;;;;;5054048;28;20203;-73
2023/02/03 07:37:48;;;;;;;4.13;2.17;;;9.90;99.90;;;;;;5054370;28;20540;-73
2023/02/03 07:40:14;;;;;;;5.70;1.53;;;10.00;99.90;;;;;;5054194;28;20274;-72
2023/02/03 07:42:44;;;;;;;3.67;1.13;;;10.00;99.90;;;;;;5065243;28;20657;-74
2023/02/03 07:45:11;;;;;;;3.23;1.03;;;10.00;99.90;;;;;;5049318;28;20414;-73
2023/02/03 07:47:37;;;;;;;3.23;1.40;;;10.10;99.90;;;;;;5034500;28;20418;-74
2023/02/03 07:50:03;;;;;;;1.13;0.93;;;10.10;99.90;;;;;;5034181;28;20438;-73
2023/02/03 07:52:29;;;;;;;3.17;1.17;;;10.20;99.90;;;;;;5032892;28;20549;-73
2023/02/03 07:54:54;;;;;;;1.87;1.10;;;10.20;99.90;;;;;;5033859;28;20464;-73
2023/02/03 07:57:20;;;;;;;8.03;1.60;;;10.30;99.90;;;;;;5033999;28;20221;-72
2023/02/03 07:59:45;;;;;;;2.20;1.10;;;10.30;99.90;;;;;;5033906;28;20187;-70
2023/02/03 08:02:11;;;;;;;2.87;1.20;;;10.30;99.90;;;;;;5052598;28;20179;-72
2023/02/03 08:04:37;;;;;;;1.97;1.07;;;10.30;99.90;;;;;;5053633;28;20167;-74
2023/02/03 08:07:03;;;;;;;4.50;1.50;;;10.40;99.90;;;;;;5053895;28;20201;-72
2023/02/03 08:09:28;;;;;;;5.33;1.20;;;10.50;99.90;;;;;;5053469;28;20437;-72
2023/02/03 08:11:54;;;;;;;6.10;1.20;;;10.60;99.90;;;;;;5053745;28;20519;-72
2023/02/03 08:14:20;;;;;;;2.77;1.47;;;10.60;99.90;;;;;;5053218;28;20705;-72
2023/02/03 08:16:45;;;;;;;2.03;1.10;;;10.60;99.90;;;;;;5053720;28;20217;-73
2023/02/03 08:19:11;;;;;;;3.37;1.10;;;10.70;99.90;;;;;;5053463;28;20182;-72
2023/02/03 08:21:37;;;;;;;3.63;1.10;;;10.70;99.90;;;;;;5053583;28;20244;-72
2023/02/03 08:24:03;;;;;;;6.80;1.10;;;10.60;99.90;;;;;;5052260;28;20409;-72
2023/02/03 08:26:29;;;;;;;3.70;1.17;;;10.60;99.90;;;;;;5053185;28;20167;-72
2023/02/03 08:28:55;;;;;;;3.33;1.07;;;10.70;99.90;;;;;;5053424;28;20455;-73
2023/02/03 08:31:20;;;;;;;2.80;2.20;;;10.80;99.90;;;;;;5038580;28;20180;-73
2023/02/03 08:33:46;;;;;;;1.20;1.10;;;10.80;99.90;;;;;;5033107;28;20168;-73
2023/02/03 08:36:11;;;;;;;1.63;1.07;;;10.70;99.90;;;;;;5032716;28;20222;-73
2023/02/03 08:38:38;;;;;;;2.43;1.23;;;10.70;99.90;;;;;;5033352;28;20636;-73
2023/02/03 08:41:16;;;;;;;4.13;1.30;;;10.80;99.90;;;;;;5033077;28;20206;-73
2023/02/03 08:43:43;;;;;;;1.00;0.83;;;10.70;99.90;;;;;;5033277;28;20445;-72
2023/02/03 08:46:11;;;;;;;3.40;1.30;;;10.70;99.90;;;;;;5031454;28;20410;-72
2023/02/03 08:48:37;;;;;;;1.70;1.00;;;10.70;99.90;;;;;;5062529;28;20440;-72
2023/02/03 08:51:10;;;;;;;1.83;0.90;;;10.70;99.90;;;;;;5051536;28;20476;-73
2023/02/03 08:53:35;;;;;;;2.00;1.10;;;10.70;99.90;;;;;;5052934;28;20497;-73
2023/02/03 08:56:08;;;;;;;1.13;1.03;;;10.70;99.90;;;;;;5052504;28;20540;-71
2023/02/03 08:58:33;;;;;;;2.43;1.50;;;10.60;99.90;;;;;;5051631;28;20173;-71
2023/02/03 09:01:12;;;;;;;1.40;1.03;;;10.60;99.90;;;;;;5050539;28;20441;-71
2023/02/03 09:03:37;;;;;;;7.13;1.00;;;10.40;99.90;;;;;;5052393;28;20186;-72
2023/02/03 09:06:04;;;;;;;5.03;1.37;;;10.50;99.90;;;;;;5052479;28;20417;-72
2023/02/03 09:08:30;;;;;;;4.20;1.37;;;10.50;99.90;;;;;;5052615;28;20251;-73
2023/02/03 09:10:56;;;;;;;1.40;1.30;;;10.50;99.90;;;;;;5052492;28;20476;-73
2023/02/03 09:13:22;;;;;;;2.53;1.20;;;10.50;99.90;;;;;;5052685;28;20171;-73
2023/02/03 09:15:47;;;;;;;6.37;1.40;;;10.60;99.90;;;;;;5052081;28;20228;-72
2023/02/03 09:18:13;;;;;;;5.83;1.20;;;10.50;99.90;;;;;;5052552;28;20405;-72
2023/02/03 09:20:38;;;;;;;4.23;1.27;;;10.50;99.90;;;;;;5051186;28;20187;-72
2023/02/03 09:23:04;;;;;;;7.63;1.40;;;10.50;99.90;;;;;;5051973;28;20643;-72
2023/02/03 09:25:30;;;;;;;1.47;1.37;;;10.50;99.90;;;;;;5052064;28;20167;-72
2023/02/03 09:27:55;;;;;;;1.50;1.20;;;10.40;99.90;;;;;;5052350;28;20197;-72
2023/02/03 09:30:21;;;;;;;3.03;1.70;;;10.50;99.90;;;;;;5041290;28;20214;-72
2023/02/03 09:32:47;;;;;;;3.57;1.47;;;10.60;99.90;;;;;;5031205;28;20179;-72
2023/02/03 09:35:14;;;;;;;3.17;1.77;;;10.60;99.90;;;;;;5031565;28;20210;-72
2023/02/03 09:37:39;;;;;;;4.43;1.30;;;10.50;99.90;;;;;;5032387;28;20398;-72
2023/02/03 09:40:06;;;;;;;2.00;1.17;;;10.50;99.90;;;;;;5032182;28;20425;-72
2023/02/03 09:43:02;;;;;;;3.43;1.63;;;10.50;99.90;;;;;;5031971;28;20195;-72
2023/02/03 09:45:29;;;;;;;5.33;1.43;;;10.50;99.90;;;;;;5031941;28;20407;-72
2023/02/03 09:48:09;;;;;;;2.23;1.53;;;10.60;99.90;;;;;;5032069;28;20465;-72
2023/02/03 09:50:37;;;;;;;2.40;1.40;;;10.70;99.90;;;;;;5032187;28;20828;-72
2023/02/03 09:53:11;;;;;;;3.63;1.43;;;10.70;99.90;;;;;;5037441;28;20513;-72
2023/02/03 09:55:42;;;;;;;5.27;1.43;;;10.70;99.90;;;;;;5062895;28;20872;-72
2023/02/03 09:58:15;;;;;;;3.47;1.47;;;10.60;99.90;;;;;;5051790;28;20409;-71
2023/02/03 10:00:50;;;;;;;2.90;1.70;;;10.70;99.90;;;;;;5035240;28;20428;-72
2023/02/03 10:03:46;;;;;;;2.37;1.00;;;10.80;99.90;;;;;;5031997;28;20433;-71
2023/02/03 10:06:34;;;;;;;2.03;1.20;;;10.60;99.90;;;;;;5031674;28;20389;-70
2023/02/03 10:09:27;;;;;;;1.40;1.03;;;10.60;99.90;;;;;;5031694;28;20505;-70
2023/02/03 10:12:29;;;;;;;2.97;1.40;;;10.60;99.90;;;;;;5031913;28;20808;-71
2023/02/03 10:15:05;;;;;;;1.20;1.10;;;10.60;99.90;;;;;;5031469;28;20862;-72
2023/02/03 10:17:45;;;;;;;2.07;1.43;;;10.50;99.90;;;;;;5032009;28;20599;-72
2023/02/03 10:20:29;;;;;;;2.50;1.20;;;10.50;99.90;;;;;;5031686;28;20525;-72
2023/02/03 10:22:59;;;;;;;2.60;1.73;;;10.40;99.90;;;;;;5031841;28;20414;-72
2023/02/03 10:25:32;;;;;;;3.93;1.70;;;10.30;99.90;;;;;;5031512;28;20402;-72
2023/02/03 10:28:02;;;;;;;6.77;1.57;;;10.30;99.90;;;;;;5031888;28;20417;-72
2023/02/03 10:30:33;;;;;;;2.80;1.80;;;10.30;99.90;;;;;;5047176;28;20433;-72
2023/02/03 10:33:09;;;;;;;2.07;1.87;;;10.20;99.90;;;;;;5051590;28;20409;-72
2023/02/03 10:35:44;;;;;;;3.20;1.70;;;10.20;99.90;;;;;;5051454;28;20491;-72
2023/02/03 10:38:21;;;;;;;2.67;2.03;;;10.00;99.90;;;;;;5051586;28;20404;-72
2023/02/03 10:40:46;;;;;;;4.33;2.20;;;10.00;99.90;;;;;;5051547;28;20429;-72
2023/02/03 10:45:57;;;;;;;3.20;2.67;;;9.90;99.90;;;;;;5040016;28;20210;-71
2023/02/03 10:48:24;;;;;;;2.53;2.33;;;9.90;99.90;;;;;;5034642;28;20402;-72
2023/02/03 10:50:51;;;;;;;3.90;1.70;;;9.80;99.90;;;;;;5035225;28;20930;-72
2023/02/03 10:53:35;;;;;;;4.23;1.97;;;9.70;99.90;;;;;;5035313;28;20410;-72
2023/02/03 10:56:11;;;;;;;4.03;1.90;;;9.70;99.90;;;;;;5033537;28;20805;-72
2023/02/03 10:58:38;;;;;;;3.77;2.40;;;9.60;99.90;;;;;;5036935;28;20428;-72
2023/02/03 11:01:08;;;;;;;3.10;1.93;;;9.60;99.90;;;;;;5040758;28;20920;-72
2023/02/03 11:03:34;;;;;;;3.30;1.90;;;9.50;99.90;;;;;;5035216;28;20401;-72
2023/02/03 11:06:14;;;;;;;3.00;2.37;;;9.60;99.90;;;;;;5062897;28;20491;-72
2023/02/03 11:08:48;;;;;;;2.57;2.03;;;9.60;99.90;;;;;;5034877;28;20580;-72
2023/02/03 11:11:36;;;;;;;2.07;1.93;;;9.60;99.90;;;;;;5035014;28;20421;-72
2023/02/03 11:14:01;;;;;;;4.97;2.00;;;9.80;99.90;;;;;;5034862;28;20441;-72
2023/02/03 11:16:28;;;;;;;3.53;2.03;;;9.80;99.90;;;;;;5034594;28;20438;-72
2023/02/03 11:19:01;;;;;;;4.67;3.10;;;9.90;99.90;;;;;;5034712;28;20250;-71
2023/02/03 11:21:29;;;;;;;4.97;2.13;;;9.90;99.90;;;;;;5034970;28;20409;-72
2023/02/03 11:24:01;;;;;;;3.00;2.70;;;10.00;99.90;;;;;;5034753;28;21097;-72
2023/02/03 11:26:32;;;;;;;5.17;3.00;;;10.10;99.90;;;;;;5034629;28;20746;-72
2023/02/03 11:29:00;;;;;;;4.50;3.70;;;10.20;99.90;;;;;;5041899;28;20428;-72
2023/02/03 11:31:31;;;;;;;4.90;2.70;;;10.30;99.90;;;;;;5054481;28;20493;-72
2023/02/03 11:34:01;;;;;;;2.97;2.70;;;10.40;99.90;;;;;;5054391;28;20433;-71
2023/02/03 11:36:28;;;;;;;3.23;3.00;;;10.40;99.90;;;;;;5054174;28;20455;-72
2023/02/03 11:39:28;;;;;;;3.50;3.17;;;10.50;99.90;;;;;;5054235;28;20405;-72
2023/02/03 11:41:54;;;;;;;6.33;3.90;;;10.70;99.90;;;;;;5054081;28;20405;-72
2023/02/03 11:44:29;;;;;;;3.20;2.77;;;10.60;99.90;;;;;;5053952;28;20405;-72
2023/02/03 11:47:08;;;;;;;2.57;2.37;;;10.70;99.90;;;;;;5035106;28;20421;-71
2023/02/03 11:49:53;;;;;;;3.50;3.20;;;10.70;99.90;;;;;;5034152;28;20433;-72
2023/02/03 11:52:46;;;;;;;4.00;3.60;;;10.70;99.90;;;;;;5034167;28;20394;-72
2023/02/03 11:55:44;;;;;;;5.90;2.50;;;10.70;99.90;;;;;;5033737;28;20446;-71
2023/02/03 11:58:27;;;;;;;3.30;3.00;;;10.70;99.90;;;;;;5032648;28;20829;-72
2023/02/03 12:01:07;;;;;;;5.80;3.40;;;10.80;99.90;;;;;;5048924;28;20433;-72
2023/02/03 12:04:03;;;;;;;4.03;3.70;;;10.70;99.90;;;;;;5054023;28;20492;-72
2023/02/03 12:06:42;;;;;;;4.20;3.00;;;10.70;99.90;;;;;;5053530;28;20455;-72
2023/02/03 12:09:24;;;;;;;5.80;4.13;;;10.80;99.90;;;;;;5052357;28;20988;-72
2023/02/03 12:12:16;;;;;;;5.37;3.27;;;10.80;99.90;;;;;;5053746;28;20770;-72
2023/02/03 12:15:20;;;;;;;3.57;3.13;;;10.70;99.90;;;;;;5053477;28;20976;-72
2023/02/03 12:17:57;;;;;;;6.43;3.13;;;10.70;99.90;;;;;;5062445;28;20437;-72
2023/02/03 12:20:41;;;;;;;6.60;3.27;;;10.60;99.90;;;;;;5073577;28;20413;-72
2023/02/03 12:23:16;;;;;;;5.27;4.63;;;10.60;99.90;;;;;;5072244;28;20404;-72
2023/02/03 12:25:51;;;;;;;6.20;4.17;;;10.70;99.90;;;;;;5073273;28;20535;-72
2023/02/03 12:28:29;;;;;;;6.90;3.20;;;10.70;99.90;;;;;;5073403;28;20553;-72
2023/02/03 12:31:07;;;;;;;10.20;3.93;;;10.70;99.90;;;;;;5073403;28;20952;-72
2023/02/03 12:33:42;;;;;;;4.67;3.77;;;10.80;99.90;;;;;;5073369;28;20397;-72
2023/02/03 12:36:14;;;;;;;8.17;4.47;;;10.80;99.90;;;;;;5072913;28;20504;-72
2023/02/03 12:39:18;;;;;;;5.10;4.60;;;10.80;99.90;;;;;;5073187;28;20411;-71
2023/02/03 12:42:07;;;;;;;4.73;4.30;;;10.90;99.90;;;;;;5072959;28;20461;-72
2023/02/03 12:45:11;;;;;;;6.80;4.00;;;10.90;99.90;;;;;;5072532;28;20447;-72
2023/02/03 12:47:45;;;;;;;8.40;5.43;;;10.90;99.90;;;;;;5033326;28;20438;-72
2023/02/03 12:50:16;;;;;;;5.27;4.63;;;10.90;99.90;;;;;;5031734;28;20472;-72
2023/02/03 12:52:50;;;;;;;9.53;6.77;;;10.90;99.90;;;;;;5031751;28;20424;-72
2023/02/03 12:55:29;;;;;;;7.03;4.50;;;10.90;99.90;;;;;;5032667;28;20859;-72
2023/02/03 12:58:00;;;;;;;5.90;4.03;;;10.90;99.90;;;;;;5033049;28;20455;-72
2023/02/03 13:00:28;;;;;;;8.77;7.03;;;11.00;99.90;;;;;;5032787;28;20429;-72
2023/02/03 13:03:13;;;;;;;5.13;4.50;;;11.00;99.90;;;;;;5032821;28;20426;-72
2023/02/03 13:05:53;;;;;;;9.90;5.20;;;10.90;99.90;;;;;;5031171;28;20398;-72
2023/02/03 13:08:34;;;;;;;5.57;4.50;;;11.00;99.90;;;;;;5032817;28;20496;-72
2023/02/03 13:11:37;;;;;;;6.70;4.90;;;11.00;99.90;;;;;;5032123;28;20444;-72
2023/02/03 13:14:09;;;;;;;5.37;4.83;;;10.90;99.90;;;;;;5032668;28;20852;-72
2023/02/03 13:16:39;;;;;;;11.20;5.40;;;10.90;99.90;;;;;;5032518;28;20398;-72